Station: Portable Qfri (Inglewood)  

  Atmospheric Gas Attenuation - ITU Rec 676-11   ----------------- dB/100km -----------------
Date Time Temp RH % AH g/m3 Dew Point Wind Direction Speed kph Gust kph Barometer mB Rainfall Since 9am 24GHz 47GHz 76GHz 122GHz 134GHz 241GHz
08/05 12:20 17.3 28 4.12 -1.2 13 19 1013.1 0 10.0 18.5 22.4 57.9 42.2 141.8
08/05 12:10 16.8 29 4.15 -1.1 13 19 1013.1 0 10.1 18.7 22.6 58.5 42.8 143.7
08/05 12:00 17.1 28 4.08 -1.5 11 15 1013.1 0 9.9 18.5 22.3 57.7 41.9 140.6
08/05 11:50 16.8 28 4 -1.5 13 17 1013.1 0 9.7 18.5 22.1 57.3 41.2 138.1
08/05 11:40 16.3 29 4.02 -1.6 17 20 1013.1 0 9.8 18.6 22.3 57.8 41.7 139.7
08/05 11:30 16.4 28 3.91 -1.9 17 24 1013.1 0 9.6 18.4 22.0 56.8 40.5 135.4
08/05 11:20 16.3 29 4.02 -1.6 15 20 1013.1 0 9.8 18.6 22.3 57.8 41.7 139.7
08/05 11:10 15.6 30 3.99 -1.7 15 20 1013.1 0 9.8 18.7 22.4 58.0 41.7 139.8
08/05 11:00 15.1 31 4 -1.7 15 17 1013.1 0 9.8 18.8 22.6 58.5 42.1 141.0
08/05 10:50 15.4 31 4.07 -1.4 19 22 1013.1 0 9.9 18.8 22.7 58.8 42.7 143.1
08/05 10:40 15.1 31 4 -1.7 19 26 1013.1 0 9.8 18.8 22.6 58.5 42.1 141.0
08/05 10:30 14.6 33 4.13 -1.4 15 20 1013.1 0 10.1 19.1 23.2 60.0 43.8 146.8
08/05 10:20 14.4 33 4.08 -1.4 17 20 1013.1 0 10.0 19.1 23.0 59.7 43.3 145.3
08/05 10:10 14.2 33 4.03 -1.7 17 22 1013.1 0 9.9 19.0 22.9 59.4 42.9 143.7
08/05 10:00 13.8 34 4.05 -1.5 15 20 1013.1 0 9.9 19.1 23.1 59.8 43.3 145.2
08/05 09:50 13.6 34 4 -1.7 17 22 1013.1 0 9.8 19.1 23.0 59.5 42.9 143.6
08/05 09:40 13.4 35 4.07 -1.5 15 19 1013.1 0 10.0 19.2 23.3 60.3 43.8 146.6
08/05 09:30 13 36 4.08 -1.6 19 22 1013.1 0 10.0 19.3 23.4 60.7 44.1 147.7
08/05 09:20 12.5 37 4.07 -1.7 17 22 1013.1 0 10.0 19.4 23.5 61.0 44.2 148.2
08/05 09:10 12.3 37 4.02 -1.8 17 22 1013.1 0 9.9 19.4 23.4 60.7 43.8 146.6
08/05 09:00 12.1 38 4.08 -1.7 13 17 1013.1 0 10.0 19.5 23.7 61.4 44.6 149.4
08/05 08:50 11.5 40 4.13 -1.7 19 22 1013.1 0 10.2 19.7 24.0 62.3 45.5 152.5
08/05 08:40 11.4 40 4.11 -1.8 20 22 1013.1 0 10.1 19.7 24.0 62.2 45.3 151.8
08/05 08:30 11.3 40 4.08 -1.8 15 19 1013.1 0 10.1 19.7 23.9 62.0 45.0 150.8
08/05 08:20 10.8 41 4.05 -1.9 19 22 1013.1 0 10.0 19.8 24.0 62.1 45.0 150.5
08/05 08:10 10.4 41 3.95 -2.1 15 22 1013.1 0 9.8 19.7 23.7 61.5 44.0 147.2
08/05 08:00 10 42 3.95 -2.2 17 20 1013.1 0 9.8 19.8 23.8 61.8 44.2 148.0
08/05 07:50 10 42 3.95 -2.4 15 20 1013.1 0 9.8 19.8 23.8 61.8 44.2 148.0
08/05 07:40 9.7 43 3.97 -2.3 13 15 1013.1 0 9.9 19.9 24.0 62.2 44.6 149.3
08/05 07:30 9.4 44 3.98 -2.3 11 15 1013.1 0 9.9 20.0 24.1 62.5 44.9 150.3
08/05 07:20 9 45 3.97 -2.3 13 15 1013.1 0 9.9 20.0 24.2 62.7 45.0 150.6
08/05 07:10 8.7 46 3.98 -2.3 11 15 1013.1 0 9.9 20.1 24.3 63.0 45.3 151.6
08/05 07:00 8.1 47 3.91 -2.4 9 15 1013.1 0 9.8 20.1 24.3 62.8 44.8 149.8
08/05 06:40 7.5 49 3.92 -2.4 7 11 1013.1 0 9.8 20.3 24.5 63.4 45.3 151.3
08/05 06:30 7.5 49 3.92 -2.4 7 9 1013.1 0 9.8 20.3 24.5 63.4 45.3 151.3
08/05 06:10 7.8 49 4 -2.3 13 17 1013.1 0 10.0 20.3 24.7 63.9 46.1 154.1
08/05 06:00 8.2 47 3.94 -2.3 11 13 1013.1 0 9.9 20.2 24.3 63.1 45.1 150.9
08/05 05:50 8 47 3.89 -2.6 15 17 1013.1 0 9.8 20.1 24.2 62.7 44.7 149.2
08/05 05:40 6.8 51 3.9 -2.6 13 17 1013.1 0 9.8 20.4 24.6 63.8 45.5 151.8
08/05 05:30 4.7 57 3.8 -3 7 11 1013.1 0 9.7 20.7 24.9 64.5 45.4 151.5
08/05 05:20 3.4 61 3.73 -3.3 6 6 1013.1 0 9.6 20.9 25.0 64.8 45.3 150.9
08/05 05:10 3.4 62 3.79 -3.2 7 9 1013.1 0 9.7 21.0 25.2 65.4 46.1 153.5
08/05 05:00 4.3 58 3.77 -3.1 6 9 1013.1 0 9.6 20.8 24.9 64.5 45.3 150.9
08/05 04:50 4.5 57 3.75 -3.3 6 9 1013.1 0 9.6 20.7 24.8 64.2 44.9 149.7
08/05 04:40 4.3 57 3.7 -3.4 7 7 1013.1 0 9.5 20.7 24.6 63.8 44.5 147.9
08/05 04:30 4.2 58 3.74 -3.4 9 9 1013.1 0 9.6 20.8 24.8 64.3 45.0 149.8
08/05 04:20 4 58 3.69 -3.5 9 9 1013.1 0 9.5 20.7 24.7 64.0 44.5 148.0
08/05 04:10 4.3 58 3.77 -3.1 9 11 1013.1 0 9.6 20.8 24.9 64.5 45.3 150.9
08/05 04:00 5.2 54 3.72 -3.4 6 7 1013.1 0 9.5 20.5 24.4 63.3 44.2 147.1
08/05 03:50 4.9 55 3.72 -3.4 7 9 1013.1 0 9.5 20.6 24.5 63.5 44.4 147.7
08/05 03:40 5 54 3.67 -3.4 7 9 1013.1 0 9.4 20.5 24.3 63.0 43.7 145.4
08/05 03:30 5.2 54 3.72 -3.2 11 13 1013.1 0 9.5 20.5 24.4 63.3 44.2 147.1
08/05 03:20 5.6 52 3.68 -3.5 9 11 1013.1 0 9.4 20.4 24.2 62.6 43.5 144.7
08/05 03:10 5.2 54 3.72 -3.4 11 11 1013.1 0 9.5 20.5 24.4 63.3 44.2 147.1
08/05 03:00 5.1 54 3.7 -3.3 11 13 1013.1 0 9.4 20.5 24.4 63.2 44.0 146.5
08/05 02:50 5.1 54 3.7 -3.3 11 13 1013.1 0 9.4 20.5 24.4 63.2 44.0 146.5
08/05 02:40 5.1 54 3.7 -3.3 13 13 1013.1 0 9.4 20.5 24.4 63.2 44.0 146.5
08/05 02:30 5.3 54 3.75 -3.2 11 13 1013.1 0 9.5 20.5 24.5 63.5 44.5 148.2
08/05 02:20 5.7 52 3.7 -3.3 11 13 1013.1 0 9.4 20.4 24.2 62.7 43.7 145.4
08/05 02:10 5.8 52 3.73 -3.2 11 13 1013.1 0 9.5 20.4 24.3 62.9 44.0 146.5
08/05 02:00 5.9 51 3.68 -3.5 11 13 1013.1 0 9.4 20.3 24.1 62.4 43.3 144.2
08/05 01:50 6.1 51 3.73 -3.1 13 15 1013.1 0 9.5 20.3 24.2 62.7 43.8 145.9
08/05 01:40 6.9 47 3.62 -3.6 9 11 1013.1 0 9.2 20.0 23.6 61.0 42.1 139.9
08/05 01:30 6.7 48 3.65 -3.5 9 11 1013.1 0 9.3 20.1 23.7 61.5 42.5 141.5
08/05 01:20 6.7 48 3.65 -3.4 9 11 1013.1 0 9.3 20.1 23.7 61.5 42.5 141.5
08/05 01:10 7.1 47 3.67 -3.3 11 13 1013.1 0 9.3 20.0 23.7 61.3 42.6 141.6
08/05 01:00 7.4 46 3.66 -3.5 11 11 1013.1 0 9.3 19.9 23.6 61.0 42.3 140.7
08/05 00:50 7.5 45 3.6 -3.6 9 11 1013.1 0 9.2 19.8 23.3 60.4 41.5 138.1
08/05 00:40 7.4 45 3.58 -3.6 11 11 1013.1 0 9.1 19.8 23.3 60.3 41.3 137.4
08/05 00:30 7.6 45 3.63 -3.5 11 13 1013.1 0 9.2 19.9 23.4 60.6 41.8 139.1
08/05 00:20 7.9 44 3.62 -3.6 13 15 1013.1 0 9.2 19.8 23.3 60.3 41.6 138.2
08/05 00:10 8 44 3.64 -3.5 13 13 1013.1 0 9.2 19.8 23.3 60.4 41.7 138.9
08/05 00:00 8.5 42 3.59 -3.5 13 15 1013.1 0 9.1 19.6 23.0 59.5 40.9 136.0
07/05 23:50 8.8 41 3.57 -3.6 13 15 1013.1 0 9.1 19.5 22.9 59.1 40.5 134.7
07/05 23:40 9 41 3.62 -3.5 13 15 1013.1 0 9.2 19.5 23.0 59.4 41.0 136.4
07/05 23:30 9.6 39 3.57 -3.5 13 15 1013.1 0 9.0 19.3 22.6 58.5 40.1 133.4
07/05 23:20 9.8 39 3.62 -3.5 15 17 1013.1 0 9.1 19.4 22.8 58.9 40.6 135.0
07/05 23:10 10.1 38 3.59 -3.5 15 17 1013.1 0 9.1 19.3 22.6 58.4 40.1 133.3
07/05 23:00 10.5 37 3.59 -3.6 17 19 1013.1 0 9.1 19.2 22.5 58.1 39.9 132.7
07/05 22:50 10.7 37 3.63 -3.4 17 20 1013.1 0 9.1 19.2 22.6 58.3 40.2 134.0
07/05 22:40 11 36 3.6 -3.3 19 22 1013.1 0 9.1 19.1 22.4 57.8 39.8 132.3
07/05 22:30 11.2 36 3.65 -3.3 20 22 1013.1 0 9.2 19.1 22.5 58.1 40.2 133.9
07/05 22:20 11.3 36 3.67 -3 19 20 1013.1 0 9.2 19.1 22.5 58.2 40.4 134.6
07/05 22:10 11.7 36 3.77 -2.7 20 24 1013.1 0 9.4 19.2 22.8 58.8 41.3 137.8
07/05 22:00 11.8 38 4 -2.1 19 24 1013.1 0 9.9 19.5 23.5 60.9 43.8 146.7
07/05 21:50 12.1 39 4.18 -1.4 22 26 1013.1 0 10.3 19.7 24.0 62.3 45.7 153.3
07/05 21:40 12.5 41 4.51 -0.2 20 24 1013.1 0 10.9 20.0 25.0 65.0 49.2 165.8
07/05 21:30 12.7 43 4.79 0.5 20 26 1013.1 0 11.5 20.4 25.9 67.4 52.3 176.6
07/05 21:20 13 44 4.99 1 22 26 1013.1 0 11.9 20.6 26.6 69.0 54.4 184.1
07/05 21:10 13.1 45 5.14 1.4 20 24 1013.1 0 12.3 20.8 27.0 70.4 56.1 190.0
07/05 21:00 13.3 49 5.66 3 24 26 1013.1 0 13.4 21.5 28.8 75.1 62.0 210.9
07/05 20:50 13.5 49 5.73 3.2 24 30 1013.1 0 13.5 21.6 29.0 75.6 62.7 213.3
07/05 20:40 13.5 51 5.97 3.7 20 26 1013.1 0 14.0 21.9 29.9 77.9 65.6 223.4
07/05 20:30 13.6 51 6 3.8 19 20 1013.1 0 14.1 21.9 29.9 78.1 65.9 224.4
07/05 20:20 13.9 50 5.99 3.7 20 22 1013.1 0 14.0 21.8 29.8 77.7 65.5 223.1
07/05 20:10 14.2 49 5.98 3.8 22 28 1013.1 0 14.0 21.8 29.7 77.4 65.1 221.9
07/05 20:00 14.3 50 6.14 4.1 24 30 1013.1 0 14.3 22.0 30.2 78.8 66.9 228.3
07/05 19:50 14.5 50 6.22 4.3 22 26 1013.1 0 14.5 22.0 30.4 79.4 67.7 231.1
07/05 19:40 14.7 50 6.3 4.6 24 33 1013.1 0 14.7 22.1 30.6 79.9 68.5 233.9
07/05 19:30 15 52 6.67 5.2 30 37 1013.1 0 15.4 22.6 31.9 83.2 72.7 248.6

Last Refresh: 08-May-2026 12:08:29

Bureau of Meteorology